Terminal Aerodrome Forecast
Issued by NWS

Home | Current Version | Previous Version | Text Only | Print | Product List | Glossary On
Versions: 1 2 3 4 5 6 7 8 9 10 11 12 13 14 15 16 17 18 19 20 21 22 23 24 25
000
FTUS45 KTWC 031735
TAFOLS
TAF
KOLS 031735Z 0318/0418 17012G19KT P6SM SCT090
     FM032000 20015G24KT P6SM SCT090
     FM040200 19009KT P6SM SCT080
     FM040700 VRB04KT P6SM SCT040 BKN060
     FM041600 16010KT P6SM SCT040 BKN060=

USA.gov is the U.S. government's official web portal to all federal, state and local government web resources and services.